createdAt,value
2019-04-06T00:02:16.483Z,8.60
2019-04-06T00:04:45.017Z,8.70
2019-04-06T00:07:13.923Z,8.70
2019-04-06T00:09:42.346Z,8.70
2019-04-06T00:12:10.792Z,8.70
2019-04-06T00:14:39.611Z,8.70
2019-04-06T00:17:08.126Z,8.70
2019-04-06T00:19:36.550Z,8.70
2019-04-06T00:22:05.991Z,8.70
2019-04-06T00:24:34.668Z,8.70
2019-04-06T00:27:03.165Z,8.70
2019-04-06T00:29:31.742Z,8.50
2019-04-06T00:32:07.657Z,8.50
2019-04-06T00:34:36.797Z,8.60
2019-04-06T00:37:05.396Z,8.60
2019-04-06T00:39:33.815Z,8.60
2019-04-06T00:42:02.597Z,8.60
2019-04-06T00:44:31.093Z,8.70
2019-04-06T00:46:59.673Z,8.80
2019-04-06T00:49:28.236Z,8.80
2019-04-06T00:51:56.636Z,8.70
2019-04-06T00:54:25.088Z,8.60
2019-04-06T00:56:54.008Z,8.70
2019-04-06T00:59:22.434Z,8.70
2019-04-06T01:01:50.983Z,8.80
2019-04-06T01:04:19.650Z,8.90
2019-04-06T01:06:48.201Z,8.90
2019-04-06T01:09:16.773Z,8.90
2019-04-06T01:11:45.382Z,8.90
2019-04-06T01:14:13.936Z,8.90
2019-04-06T01:16:42.474Z,8.90
2019-04-06T01:19:11.316Z,9.00
2019-04-06T01:21:40.182Z,9.00
2019-04-06T01:24:08.620Z,9.00
2019-04-06T01:26:37.446Z,9.00
2019-04-06T01:29:05.927Z,9.10
2019-04-06T01:31:34.359Z,9.10
2019-04-06T01:34:03.397Z,9.10
2019-04-06T01:36:31.822Z,9.10
2019-04-06T01:39:00.274Z,9.10
2019-04-06T01:41:28.890Z,9.10
2019-04-06T01:43:57.422Z,9.10
2019-04-06T01:46:25.906Z,9.10
2019-04-06T01:48:54.664Z,9.10
2019-04-06T01:51:23.212Z,9.10
2019-04-06T01:53:51.642Z,9.10
2019-04-06T01:56:20.397Z,9.10
2019-04-06T01:58:48.798Z,9.10
2019-04-06T02:01:34.515Z,9.10
2019-04-06T02:04:03.109Z,9.10
2019-04-06T02:06:31.581Z,9.10
2019-04-06T02:09:00.333Z,9.10
2019-04-06T02:11:28.875Z,9.10
2019-04-06T02:13:57.363Z,9.10
2019-04-06T02:16:27.030Z,9.10
2019-04-06T02:18:55.437Z,9.10
2019-04-06T02:21:23.937Z,9.10
2019-04-06T02:23:52.725Z,9.10
2019-04-06T02:26:30.245Z,9.10
2019-04-06T02:28:51.384Z,9.10
2019-04-06T02:31:24.921Z,9.00
2019-04-06T02:33:55.065Z,9.00
2019-04-06T02:36:41.724Z,9.00
2019-04-06T02:39:28.338Z,9.00
2019-04-06T02:42:00.611Z,9.00
2019-04-06T02:44:29.067Z,9.00
2019-04-06T02:46:57.587Z,9.00
2019-04-06T02:49:26.552Z,9.00
2019-04-06T02:51:55.053Z,9.10
2019-04-06T02:54:23.576Z,9.00
2019-04-06T02:56:52.259Z,8.90
2019-04-06T02:59:20.875Z,9.00
2019-04-06T03:01:51.263Z,9.00
2019-04-06T03:04:20.057Z,8.90
2019-04-06T03:06:48.538Z,8.80
2019-04-06T03:09:17.295Z,8.80
2019-04-06T03:11:46.058Z,8.90
2019-04-06T03:14:14.598Z,8.90
2019-04-06T03:16:44.791Z,8.90
2019-04-06T03:19:13.675Z,9.00
2019-04-06T03:21:42.115Z,9.00
2019-04-06T03:24:10.688Z,9.00
2019-04-06T03:26:39.325Z,9.00
2019-04-06T03:29:07.919Z,9.00
2019-04-06T03:31:36.452Z,9.00
2019-04-06T03:34:05.056Z,8.90
2019-04-06T03:36:33.489Z,8.90
2019-04-06T03:39:01.983Z,8.90
2019-04-06T03:41:30.714Z,9.00
2019-04-06T03:43:59.149Z,9.10
2019-04-06T03:46:27.575Z,9.10
2019-04-06T03:48:56.263Z,9.10
2019-04-06T03:51:24.749Z,9.10
2019-04-06T03:53:53.270Z,9.10
2019-04-06T03:56:22.255Z,9.10
2019-04-06T03:58:52.209Z,9.10
2019-04-06T04:01:20.975Z,9.00
2019-04-06T04:03:49.722Z,9.00
2019-04-06T04:06:18.188Z,9.10
2019-04-06T04:08:46.640Z,9.10
2019-04-06T04:11:15.288Z,9.10
2019-04-06T04:13:43.768Z,9.00
2019-04-06T04:16:12.379Z,9.10
2019-04-06T04:18:40.981Z,9.10
2019-04-06T04:21:09.520Z,9.10
2019-04-06T04:23:37.940Z,9.10
2019-04-06T04:26:06.782Z,9.10
2019-04-06T04:28:35.525Z,9.10
2019-04-06T04:31:04.090Z,9.00
2019-04-06T04:33:32.879Z,9.00
2019-04-06T04:36:01.362Z,9.00
2019-04-06T04:38:29.798Z,9.10
2019-04-06T04:40:58.790Z,9.10
2019-04-06T04:43:27.230Z,9.10
2019-04-06T04:45:55.902Z,9.10
2019-04-06T04:48:24.602Z,9.00
2019-04-06T04:50:53.117Z,9.00
2019-04-06T04:53:21.671Z,9.00
2019-04-06T04:55:50.334Z,9.00
2019-04-06T04:58:18.769Z,9.10
2019-04-06T05:00:47.207Z,9.10
2019-04-06T05:03:15.805Z,9.10
2019-04-06T05:05:44.270Z,9.10
2019-04-06T05:08:12.697Z,9.10
2019-04-06T05:10:41.292Z,9.00
2019-04-06T05:13:09.970Z,9.00
2019-04-06T05:15:56.889Z,9.00
2019-04-06T05:18:26.953Z,9.00
2019-04-06T05:20:55.370Z,9.10
2019-04-06T05:23:24.352Z,9.00
2019-04-06T05:25:52.821Z,9.10
2019-04-06T05:28:21.241Z,9.00
2019-04-06T05:30:50.115Z,9.00
2019-04-06T05:33:18.660Z,9.10
2019-04-06T05:35:47.062Z,9.10
2019-04-06T05:38:15.692Z,9.10
2019-04-06T05:40:44.325Z,9.10
2019-04-06T05:43:12.864Z,9.20
2019-04-06T05:45:41.498Z,9.20
2019-04-06T05:48:09.934Z,9.20
2019-04-06T05:50:38.529Z,9.30
2019-04-06T05:53:07.120Z,9.20
2019-04-06T05:55:35.791Z,9.30
2019-04-06T05:58:06.908Z,9.40
2019-04-06T06:00:35.246Z,9.40
2019-04-06T06:03:04.017Z,9.50
2019-04-06T06:05:32.494Z,9.50
2019-04-06T06:08:01.022Z,9.50
2019-04-06T06:10:29.482Z,9.50
2019-04-06T06:12:57.991Z,9.50
2019-04-06T06:15:26.820Z,9.60
2019-04-06T06:17:55.358Z,9.60
2019-04-06T06:20:23.903Z,9.70
2019-04-06T06:22:52.490Z,9.70
2019-04-06T06:25:21.869Z,9.70
2019-04-06T06:27:50.541Z,9.80
2019-04-06T06:30:19.899Z,9.80
2019-04-06T06:32:48.430Z,9.80
2019-04-06T06:35:17.665Z,9.90
2019-04-06T06:37:46.457Z,9.80
2019-04-06T06:40:15.177Z,9.90
2019-04-06T06:42:43.650Z,9.90
2019-04-06T06:45:12.552Z,9.90
2019-04-06T06:47:41.206Z,9.90
2019-04-06T06:50:09.910Z,10.00
2019-04-06T06:52:39.109Z,10.00
2019-04-06T06:55:07.783Z,10.10
2019-04-06T06:57:37.498Z,10.20
2019-04-06T07:00:06.713Z,10.20
2019-04-06T07:02:35.411Z,10.20
2019-04-06T07:05:05.389Z,10.20
2019-04-06T07:07:34.295Z,10.20
2019-04-06T07:10:05.835Z,10.30
2019-04-06T07:12:32.875Z,10.40
2019-04-06T07:15:01.543Z,10.50
2019-04-06T07:17:30.145Z,10.60
2019-04-06T07:19:58.651Z,10.70
2019-04-06T07:22:27.386Z,10.70
2019-04-06T07:24:55.845Z,10.80
2019-04-06T07:27:24.307Z,10.80
2019-04-06T07:29:53.063Z,10.70
2019-04-06T07:32:21.670Z,10.70
2019-04-06T07:34:50.103Z,10.70
2019-04-06T07:37:18.675Z,10.70
2019-04-06T07:39:47.187Z,10.80
2019-04-06T07:42:15.736Z,10.90
2019-04-06T07:44:44.560Z,11.00
2019-04-06T07:47:13.005Z,10.90
2019-04-06T07:49:41.460Z,10.80
2019-04-06T07:52:10.301Z,10.80
2019-04-06T07:54:38.826Z,10.80
2019-04-06T07:57:07.273Z,10.80
2019-04-06T07:59:36.093Z,10.90
2019-04-06T08:02:04.631Z,11.10
2019-04-06T08:04:33.073Z,11.30
2019-04-06T08:07:01.798Z,11.30
2019-04-06T08:09:30.305Z,11.20
2019-04-06T08:11:59.806Z,11.10
2019-04-06T08:14:28.342Z,11.00
2019-04-06T08:16:56.865Z,11.00
2019-04-06T08:19:25.266Z,11.10
2019-04-06T08:21:53.834Z,10.90
2019-04-06T08:24:22.263Z,11.10
2019-04-06T08:26:50.754Z,11.10
2019-04-06T08:29:19.275Z,11.20
2019-04-06T08:31:47.764Z,11.30
2019-04-06T08:34:16.781Z,11.50
2019-04-06T08:36:45.733Z,11.80
2019-04-06T08:39:14.239Z,11.60
2019-04-06T08:41:42.783Z,11.70
2019-04-06T08:44:11.471Z,11.70
2019-04-06T08:46:40.235Z,11.80
2019-04-06T08:49:08.745Z,11.90
2019-04-06T08:51:37.595Z,11.90
2019-04-06T08:54:06.110Z,11.90
2019-04-06T08:56:34.587Z,11.90
2019-04-06T08:59:11.223Z,11.80
2019-04-06T09:01:33.739Z,11.70
2019-04-06T09:04:02.501Z,11.90
2019-04-06T09:06:31.117Z,12.10
2019-04-06T09:08:59.775Z,12.00
2019-04-06T09:11:28.215Z,12.00
2019-04-06T09:13:57.047Z,12.20
2019-04-06T09:16:25.765Z,12.30
2019-04-06T09:18:54.288Z,12.40
2019-04-06T09:21:23.725Z,12.20
2019-04-06T09:23:52.258Z,12.20
2019-04-06T09:26:28.760Z,12.10
2019-04-06T09:28:59.438Z,12.30
2019-04-06T09:31:27.375Z,12.30
2019-04-06T09:33:56.005Z,12.50
2019-04-06T09:36:24.601Z,12.50
2019-04-06T09:38:53.114Z,12.70
2019-04-06T09:41:21.754Z,12.80
2019-04-06T09:43:50.259Z,13.20
2019-04-06T09:46:23.438Z,13.40
2019-04-06T09:49:08.458Z,13.10
2019-04-06T09:51:38.792Z,13.40
2019-04-06T09:54:14.658Z,13.70
2019-04-06T09:56:57.140Z,13.40
2019-04-06T09:59:42.253Z,13.10
2019-04-06T10:02:12.934Z,13.10
2019-04-06T10:04:58.235Z,13.00
2019-04-06T10:07:34.056Z,13.20
2019-04-06T10:10:13.908Z,13.40
2019-04-06T10:12:50.070Z,13.40
2019-04-06T10:15:31.879Z,13.50
2019-04-06T10:18:07.760Z,13.70
2019-04-06T10:20:40.857Z,13.40
2019-04-06T10:23:25.871Z,13.20
2019-04-06T10:25:55.971Z,13.20
2019-04-06T10:28:31.970Z,13.10
2019-04-06T10:31:02.260Z,13.00
2019-04-06T10:33:35.489Z,13.10
2019-04-06T10:36:11.794Z,13.00
2019-04-06T10:38:42.281Z,13.10
2019-04-06T10:41:21.252Z,13.30
2019-04-06T10:43:54.270Z,13.60
2019-04-06T10:46:33.349Z,14.30
2019-04-06T10:49:03.717Z,14.40
2019-04-06T10:51:46.023Z,14.60
2019-04-06T10:54:25.472Z,14.70
2019-04-06T10:57:12.117Z,14.30
2019-04-06T10:59:42.981Z,14.60
2019-04-06T11:02:29.291Z,14.50
2019-04-06T11:05:11.951Z,14.50
2019-04-06T11:07:45.096Z,14.60
2019-04-06T11:10:15.571Z,15.20
2019-04-06T11:13:02.228Z,15.60
2019-04-06T11:15:32.587Z,16.10
2019-04-06T11:18:19.740Z,16.50
2019-04-06T11:21:07.298Z,17.20
2019-04-06T11:23:53.743Z,17.40
2019-04-06T11:26:24.097Z,17.60
2019-04-06T11:29:10.683Z,17.80
2019-04-06T11:31:57.615Z,17.30
2019-04-06T11:34:36.678Z,16.70
2019-04-06T11:37:23.609Z,16.30
2019-04-06T11:39:53.943Z,15.70
2019-04-06T11:42:24.353Z,15.90
2019-04-06T11:45:11.171Z,15.40
2019-04-06T11:47:41.540Z,15.50
2019-04-06T11:50:23.904Z,15.90
2019-04-06T11:52:54.300Z,16.00
2019-04-06T11:55:27.422Z,15.80
2019-04-06T11:58:10.162Z,15.50
2019-04-06T12:00:43.192Z,15.50
2019-04-06T12:03:19.706Z,15.70
2019-04-06T12:05:52.645Z,15.90
2019-04-06T12:08:32.007Z,15.90
2019-04-06T12:11:18.616Z,16.10
2019-04-06T12:13:51.832Z,16.00
2019-04-06T12:16:22.434Z,16.10
2019-04-06T12:18:58.534Z,15.90
2019-04-06T12:21:31.189Z,16.00
2019-04-06T12:24:17.416Z,16.30
2019-04-06T12:26:56.249Z,16.50
2019-04-06T12:29:38.835Z,16.30
2019-04-06T12:32:25.108Z,16.10
2019-04-06T12:35:10.764Z,16.30
2019-04-06T12:37:43.705Z,16.10
2019-04-06T12:40:14.319Z,16.40
2019-04-06T12:42:44.398Z,16.60
2019-04-06T12:45:14.665Z,16.60
2019-04-06T12:47:45.085Z,16.50
2019-04-06T12:50:18.446Z,16.40
2019-04-06T12:52:51.657Z,16.60
2019-04-06T12:55:21.744Z,16.90
2019-04-06T12:57:55.304Z,17.10
2019-04-06T13:00:31.245Z,16.80
2019-04-06T13:03:08.243Z,16.80
2019-04-06T13:05:44.532Z,16.60
2019-04-06T13:08:30.783Z,16.70
2019-04-06T13:11:02.526Z,16.80
2019-04-06T13:13:48.505Z,17.10
2019-04-06T13:16:27.568Z,17.20
2019-04-06T13:18:57.879Z,17.20
2019-04-06T13:21:44.388Z,17.10
2019-04-06T13:24:20.355Z,17.10
2019-04-06T13:26:50.705Z,17.30
2019-04-06T13:29:33.051Z,17.10
2019-04-06T13:32:12.122Z,17.20
2019-04-06T13:34:42.667Z,17.30
2019-04-06T13:37:18.571Z,17.40
2019-04-06T13:39:54.617Z,17.50
2019-04-06T13:42:24.711Z,17.40
2019-04-06T13:45:00.856Z,17.40
2019-04-06T13:47:36.748Z,17.50
2019-04-06T13:50:19.056Z,17.70
2019-04-06T13:52:51.694Z,17.80
2019-04-06T13:55:25.479Z,17.80
2019-04-06T13:58:07.918Z,17.90
2019-04-06T14:00:38.217Z,17.90
2019-04-06T14:03:14.828Z,18.00
2019-04-06T14:06:01.216Z,18.20
2019-04-06T14:08:31.345Z,18.40
2019-04-06T14:11:17.945Z,18.50
2019-04-06T14:13:59.706Z,18.30
2019-04-06T14:16:30.298Z,18.00
2019-04-06T14:19:16.308Z,17.80
2019-04-06T14:21:55.791Z,17.80
2019-04-06T14:24:34.972Z,17.90
2019-04-06T14:27:05.938Z,17.90
2019-04-06T14:29:45.057Z,18.00
2019-04-06T14:32:29.961Z,17.80
2019-04-06T14:35:16.817Z,17.80
2019-04-06T14:37:59.931Z,17.70
2019-04-06T14:40:30.373Z,17.50
2019-04-06T14:43:09.874Z,17.40
2019-04-06T14:45:46.590Z,17.40
2019-04-06T14:48:16.932Z,17.50
2019-04-06T14:50:58.922Z,17.50
2019-04-06T14:53:47.007Z,17.40
2019-04-06T14:56:17.657Z,17.40
2019-04-06T14:59:00.100Z,17.50
2019-04-06T15:01:43.841Z,17.60
2019-04-06T15:04:18.195Z,17.60
2019-04-06T15:07:11.182Z,17.40
2019-04-06T15:09:37.717Z,17.30
2019-04-06T15:12:07.915Z,17.30
2019-04-06T15:14:54.857Z,17.30
2019-04-06T15:17:28.090Z,17.30
2019-04-06T15:20:07.692Z,17.20
2019-04-06T15:22:53.162Z,17.20
2019-04-06T15:25:28.435Z,17.20
2019-04-06T15:28:14.407Z,17.30
2019-04-06T15:30:56.712Z,17.30
2019-04-06T15:33:29.757Z,17.30
2019-04-06T15:36:12.720Z,17.30
2019-04-06T15:38:43.063Z,17.30
2019-04-06T15:41:29.450Z,17.30
2019-04-06T15:43:59.529Z,17.30
2019-04-06T15:46:45.058Z,17.30
2019-04-06T15:49:31.483Z,17.20
2019-04-06T15:52:11.945Z,17.20
2019-04-06T15:54:45.569Z,17.10
2019-04-06T15:57:15.937Z,17.10
2019-04-06T15:59:58.010Z,17.10
2019-04-06T16:02:34.399Z,17.10
2019-04-06T16:05:07.633Z,17.10
2019-04-06T16:07:43.908Z,17.10
2019-04-06T16:10:14.297Z,17.00
2019-04-06T16:12:59.366Z,17.10
2019-04-06T16:15:35.281Z,17.10
2019-04-06T16:18:08.605Z,17.10
2019-04-06T16:20:38.764Z,17.10
2019-04-06T16:23:09.759Z,17.10
2019-04-06T16:25:46.466Z,17.10
2019-04-06T16:28:35.444Z,17.10
2019-04-06T16:31:17.408Z,17.20
2019-04-06T16:33:49.786Z,17.30
2019-04-06T16:36:20.049Z,17.40
2019-04-06T16:39:06.734Z,17.40
2019-04-06T16:41:53.255Z,17.40
2019-04-06T16:44:26.829Z,17.50
2019-04-06T16:46:57.388Z,17.50
2019-04-06T16:49:27.758Z,17.50
2019-04-06T16:51:57.897Z,17.50
2019-04-06T16:54:28.008Z,17.50
2019-04-06T16:56:58.316Z,17.40
2019-04-06T16:59:44.706Z,17.30
2019-04-06T17:02:31.672Z,17.20
2019-04-06T17:05:01.827Z,17.20
2019-04-06T17:07:35.141Z,17.10
2019-04-06T17:10:22.853Z,17.10
2019-04-06T17:13:09.671Z,17.00
2019-04-06T17:15:40.113Z,17.00
2019-04-06T17:18:19.750Z,16.90
2019-04-06T17:20:52.571Z,16.90
2019-04-06T17:23:23.350Z,16.90
2019-04-06T17:25:56.840Z,16.80
2019-04-06T17:28:42.714Z,16.70
2019-04-06T17:31:24.842Z,16.70
2019-04-06T17:33:55.644Z,16.70
2019-04-06T17:36:44.150Z,16.60
2019-04-06T17:39:17.467Z,16.50
2019-04-06T17:41:54.733Z,16.40
2019-04-06T17:44:25.471Z,16.30
2019-04-06T17:47:12.195Z,16.30
2019-04-06T17:49:45.813Z,16.20
2019-04-06T17:52:33.898Z,16.10
2019-04-06T17:55:14.480Z,16.10
2019-04-06T17:57:57.036Z,16.00
2019-04-06T18:00:27.487Z,15.90
2019-04-06T18:03:13.718Z,15.90
2019-04-06T18:06:02.478Z,15.80
2019-04-06T18:08:49.238Z,15.70
2019-04-06T18:11:25.845Z,15.50
2019-04-06T18:13:54.394Z,15.50
2019-04-06T18:16:24.647Z,15.40
2019-04-06T18:18:53.636Z,15.30
2019-04-06T18:21:22.264Z,15.30
2019-04-06T18:23:50.914Z,15.10
2019-04-06T18:26:19.823Z,15.00
2019-04-06T18:28:48.417Z,14.90
2019-04-06T18:31:20.217Z,14.80
2019-04-06T18:33:49.674Z,14.60
2019-04-06T18:36:18.199Z,14.50
2019-04-06T18:38:56.367Z,14.40
2019-04-06T18:41:24.992Z,14.30
2019-04-06T18:43:53.910Z,14.20
2019-04-06T18:46:22.797Z,14.20
2019-04-06T18:48:51.213Z,14.30
2019-04-06T18:51:20.649Z,14.10
2019-04-06T18:53:49.496Z,14.10
2019-04-06T18:56:17.965Z,14.00
2019-04-06T18:58:46.537Z,13.90
2019-04-06T19:01:15.600Z,13.80
2019-04-06T19:03:44.281Z,13.70
2019-04-06T19:06:12.740Z,13.60
2019-04-06T19:08:41.446Z,13.60
2019-04-06T19:11:10.140Z,13.50
2019-04-06T19:13:39.103Z,13.50
2019-04-06T19:16:07.950Z,13.50
2019-04-06T19:18:36.690Z,13.40
2019-04-06T19:21:07.321Z,13.40
2019-04-06T19:23:36.219Z,13.40
2019-04-06T19:26:04.961Z,13.30
2019-04-06T19:28:33.610Z,13.30
2019-04-06T19:31:02.281Z,13.10
2019-04-06T19:33:30.798Z,13.00
2019-04-06T19:35:59.347Z,12.90
2019-04-06T19:38:27.992Z,12.90
2019-04-06T19:40:56.512Z,12.80
2019-04-06T19:43:25.206Z,12.80
2019-04-06T19:45:54.098Z,12.80
2019-04-06T19:48:22.740Z,12.80
2019-04-06T19:50:51.598Z,12.70
2019-04-06T19:53:20.320Z,12.70
2019-04-06T19:55:48.924Z,12.70
2019-04-06T19:58:17.962Z,12.70
2019-04-06T20:00:47.019Z,12.60
2019-04-06T20:03:16.946Z,12.60
2019-04-06T20:05:45.542Z,12.50
2019-04-06T20:08:15.032Z,12.50
2019-04-06T20:10:43.572Z,12.40
2019-04-06T20:13:12.104Z,12.40
2019-04-06T20:15:41.107Z,12.40
2019-04-06T20:18:10.153Z,12.30
2019-04-06T20:20:38.865Z,12.30
2019-04-06T20:23:07.834Z,12.30
2019-04-06T20:25:37.700Z,12.40
2019-04-06T20:28:07.896Z,12.40
2019-04-06T20:30:38.018Z,12.40
2019-04-06T20:33:07.078Z,12.50
2019-04-06T20:35:36.104Z,12.50
2019-04-06T20:38:05.191Z,12.50
2019-04-06T20:40:33.907Z,12.50
2019-04-06T20:43:02.819Z,12.50
2019-04-06T20:45:31.555Z,12.60
2019-04-06T20:48:00.046Z,12.60
2019-04-06T20:50:28.724Z,12.70
2019-04-06T20:52:58.010Z,12.70
2019-04-06T20:55:27.008Z,12.70
2019-04-06T20:57:57.075Z,12.70
2019-04-06T21:00:26.786Z,12.70
2019-04-06T21:02:55.549Z,12.70
2019-04-06T21:05:24.237Z,12.60
2019-04-06T21:07:53.035Z,12.50
2019-04-06T21:10:22.223Z,12.50
2019-04-06T21:12:50.893Z,12.40
2019-04-06T21:15:21.346Z,12.30
2019-04-06T21:17:50.611Z,12.30
2019-04-06T21:20:19.324Z,12.20
2019-04-06T21:22:49.686Z,12.20
2019-04-06T21:25:19.085Z,12.10
2019-04-06T21:27:51.396Z,12.10
2019-04-06T21:30:21.449Z,12.10
2019-04-06T21:32:51.686Z,12.00
2019-04-06T21:35:21.474Z,12.00
2019-04-06T21:37:50.463Z,12.00
2019-04-06T21:40:19.771Z,11.90
2019-04-06T21:42:48.845Z,11.80
2019-04-06T21:45:17.671Z,11.70
2019-04-06T21:47:46.417Z,11.70
2019-04-06T21:50:16.061Z,11.70
2019-04-06T21:52:45.224Z,11.60
2019-04-06T21:55:14.057Z,11.60
2019-04-06T21:57:43.155Z,11.60
2019-04-06T22:00:14.935Z,11.60
2019-04-06T22:02:43.720Z,11.60
2019-04-06T22:05:12.602Z,11.60
2019-04-06T22:07:48.086Z,11.50
2019-04-06T22:10:14.032Z,11.40
2019-04-06T22:12:43.160Z,11.40
2019-04-06T22:15:13.723Z,11.30
2019-04-06T22:17:42.838Z,11.30
2019-04-06T22:20:12.684Z,11.20
2019-04-06T22:22:41.688Z,11.20
2019-04-06T22:25:12.515Z,11.20
2019-04-06T22:27:41.029Z,11.10
2019-04-06T22:30:11.268Z,11.10
2019-04-06T22:32:40.338Z,11.10
2019-04-06T22:35:09.073Z,11.10
2019-04-06T22:37:38.276Z,11.10
2019-04-06T22:40:08.627Z,11.10
2019-04-06T22:42:37.307Z,11.20
2019-04-06T22:45:10.907Z,11.20
2019-04-06T22:47:39.857Z,11.20
2019-04-06T22:50:09.594Z,11.30
2019-04-06T22:52:38.495Z,11.30
2019-04-06T22:55:07.417Z,11.30
2019-04-06T22:57:36.131Z,11.40
2019-04-06T23:00:10.048Z,11.50
2019-04-06T23:02:46.522Z,11.50
2019-04-06T23:05:19.993Z,11.50
2019-04-06T23:07:49.598Z,11.50
2019-04-06T23:10:18.630Z,11.60
2019-04-06T23:12:47.514Z,11.60
2019-04-06T23:15:16.471Z,11.60
2019-04-06T23:17:45.289Z,11.60
2019-04-06T23:20:14.106Z,11.60
2019-04-06T23:22:42.565Z,11.60
2019-04-06T23:25:11.747Z,11.60
2019-04-06T23:27:40.514Z,11.60
2019-04-06T23:30:09.095Z,11.60
2019-04-06T23:32:37.782Z,11.60
2019-04-06T23:35:07.047Z,11.60
2019-04-06T23:37:35.631Z,11.70
2019-04-06T23:40:06.623Z,11.70
2019-04-06T23:42:35.455Z,11.80
2019-04-06T23:45:05.967Z,11.80
2019-04-06T23:47:35.101Z,11.80
2019-04-06T23:50:06.644Z,11.70
2019-04-06T23:52:35.587Z,11.70
2019-04-06T23:55:07.617Z,11.80
2019-04-06T23:57:36.090Z,11.80
